Time;durP1;ratioP1;P1;durP2;ratioP2;P2;SDS_P1;SDS_P2;PMS_P1;PMS_P2;Temp;Humidity;BMP_temperature;BMP_pressure;BME280_temperature;BME280_humidity;BME280_pressure;Samples;Min_cycle;Max_cycle;Signal;HPM_P1;HPM_P2
2022/08/16 00:04:06;;;;;;;4.82;2.63;;;;;18.50;95793.00;;;;8344849;28;20232;-67
2022/08/16 00:08:12;;;;;;;7.43;3.40;;;;;18.50;95794.00;;;;8346107;28;20232;-72
2022/08/16 00:12:40;;;;;;;5.00;2.90;;;;;18.40;95795.00;;;;8341246;28;20274;-69
2022/08/16 00:16:43;;;;;;;3.25;2.83;;;;;18.30;95801.00;;;;8347844;28;20622;-66
2022/08/16 00:21:06;;;;;;;4.47;3.30;;;;;18.20;95805.00;;;;8346435;28;20232;-69
2022/08/16 00:25:15;;;;;;;5.90;3.20;;;;;18.10;95800.00;;;;8340522;28;20675;-67
2022/08/16 00:29:18;;;;;;;4.80;3.13;;;;;18.00;95797.00;;;;8348674;28;20240;-67
2022/08/16 00:33:21;;;;;;;5.75;3.03;;;;;17.90;95789.00;;;;8346991;28;20225;-67
2022/08/16 00:37:28;;;;;;;3.30;3.00;;;;;17.80;95801.00;;;;8347290;28;20761;-67
2022/08/16 00:41:53;;;;;;;3.70;3.40;;;;;17.70;95797.00;;;;8344961;28;20212;-69
2022/08/16 00:46:07;;;;;;;5.22;3.10;;;;;17.60;95802.00;;;;8344592;28;20753;-66
2022/08/16 00:50:32;;;;;;;3.70;3.40;;;;;17.60;95807.00;;;;8346586;28;20688;-66
2022/08/16 00:54:38;;;;;;;4.43;3.33;;;;;17.50;95802.00;;;;8346344;28;20231;-66
2022/08/16 00:58:48;;;;;;;4.95;3.33;;;;;17.40;95801.00;;;;8346594;28;20236;-68
2022/08/16 01:02:52;;;;;;;3.83;3.53;;;;;17.40;95797.00;;;;8346058;28;20232;-70
2022/08/16 01:06:56;;;;;;;7.53;3.38;;;;;17.20;95813.00;;;;8346453;28;20829;-67
2022/08/16 01:11:06;;;;;;;5.05;3.53;;;;;17.10;95812.00;;;;8344001;28;20224;-69
2022/08/16 01:15:12;;;;;;;7.22;3.65;;;;;17.10;95810.00;;;;8353029;28;20570;-67
2022/08/16 01:19:22;;;;;;;4.15;3.67;;;;;16.90;95812.00;;;;8353327;28;20232;-68
2022/08/16 01:23:32;;;;;;;5.78;3.90;;;;;16.80;95813.00;;;;8351227;28;20229;-69
2022/08/16 01:28:00;;;;;;;4.60;3.75;;;;;16.70;95814.00;;;;8351612;28;20252;-67
2022/08/16 01:32:04;;;;;;;4.50;4.10;;;;;16.80;95822.00;;;;8352749;28;20301;-67
2022/08/16 01:36:11;;;;;;;4.72;3.90;;;;;16.90;95824.00;;;;8349360;28;20224;-74
2022/08/16 01:40:17;;;;;;;5.53;3.50;;;;;17.00;95822.00;;;;8347187;28;20289;-70
2022/08/16 01:44:22;;;;;;;3.85;3.50;;;;;17.10;95825.00;;;;8349550;28;20242;-71
2022/08/16 01:48:39;;;;;;;5.05;3.95;;;;;17.20;95822.00;;;;8350333;28;20213;-70
2022/08/16 01:52:48;;;;;;;4.80;3.60;;;;;17.30;95828.00;;;;8352704;28;20638;-69
2022/08/16 01:56:51;;;;;;;5.25;3.58;;;;;17.30;95829.00;;;;8353427;28;20800;-70
2022/08/16 02:00:56;;;;;;;5.70;3.85;;;;;17.30;95832.00;;;;8352240;28;20245;-67
2022/08/16 02:05:00;;;;;;;6.70;4.07;;;;;17.20;95816.00;;;;8349579;28;20236;-68
2022/08/16 02:09:06;;;;;;;5.07;3.75;;;;;17.10;95817.00;;;;8352004;28;20605;-67
2022/08/16 02:13:13;;;;;;;8.02;4.10;;;;;17.10;95824.00;;;;8350008;28;20267;-68
2022/08/16 02:17:18;;;;;;;5.05;4.45;;;;;17.00;95821.00;;;;8350577;28;20232;-69
2022/08/16 02:21:22;;;;;;;11.82;4.30;;;;;16.80;95819.00;;;;8348440;28;20224;-69
2022/08/16 02:25:34;;;;;;;5.68;4.45;;;;;16.80;95820.00;;;;8361123;28;20263;-67
2022/08/16 02:29:56;;;;;;;7.38;4.40;;;;;16.70;95820.00;;;;8334755;28;20225;-67
2022/08/16 02:34:09;;;;;;;6.65;4.03;;;;;16.60;95809.00;;;;8347070;28;20659;-69
2022/08/16 02:38:13;;;;;;;7.88;4.43;;;;;16.60;95800.00;;;;8351195;28;20217;-68
2022/08/16 02:42:18;;;;;;;6.45;3.97;;;;;16.50;95783.00;;;;8349374;28;20355;-67
2022/08/16 02:46:21;;;;;;;5.93;4.72;;;;;16.40;95799.00;;;;8349539;28;20599;-67
2022/08/16 02:50:37;;;;;;;9.10;4.18;;;;;16.50;95801.00;;;;8346343;28;20236;-69
2022/08/16 02:55:00;;;;;;;6.78;4.50;;;;;16.50;95794.00;;;;8347125;28;20236;-67
2022/08/16 02:59:03;;;;;;;4.72;4.30;;;;;16.50;95797.00;;;;8348871;28;20232;-69
2022/08/16 03:03:17;;;;;;;5.75;4.18;;;;;16.70;95797.00;;;;8345594;22;20253;-69
2022/08/16 03:07:21;;;;;;;6.78;4.63;;;;;16.90;95782.00;;;;8304158;28;20232;-68
2022/08/16 03:11:30;;;;;;;5.18;4.43;;;;;17.10;95780.00;;;;8309807;28;20720;-70
2022/08/16 03:15:37;;;;;;;7.45;3.97;;;;;17.10;95781.00;;;;8317696;28;20235;-69
2022/08/16 03:19:41;;;;;;;5.38;4.40;;;;;17.10;95773.00;;;;8321056;28;20240;-69
2022/08/16 03:24:04;;;;;;;6.30;4.35;;;;;17.10;95768.00;;;;8319651;28;20227;-67
2022/08/16 03:28:08;;;;;;;6.63;4.40;;;;;17.10;95775.00;;;;8312562;28;20243;-68
2022/08/16 03:32:13;;;;;;;6.15;4.28;;;;;17.10;95770.00;;;;8310925;28;20654;-68
2022/08/16 03:36:19;;;;;;;6.00;4.28;;;;;17.00;95787.00;;;;8321185;28;20968;-67
2022/08/16 03:40:37;;;;;;;6.15;4.38;;;;;17.00;95783.00;;;;8323749;28;20225;-68
2022/08/16 03:44:42;;;;;;;6.18;4.15;;;;;17.10;95790.00;;;;8314674;28;20227;-66
2022/08/16 03:48:52;;;;;;;4.68;4.28;;;;;17.10;95795.00;;;;8320357;28;20240;-67
2022/08/16 03:52:56;;;;;;;5.40;4.05;;;;;17.10;95797.00;;;;8323226;28;20597;-68
2022/08/16 03:57:09;;;;;;;8.07;4.80;;;;;17.10;95804.00;;;;8328816;28;20709;-68
2022/08/16 04:01:17;;;;;;;6.47;4.18;;;;;17.10;95801.00;;;;8312558;28;20228;-69
2022/08/16 04:05:20;;;;;;;6.03;4.03;;;;;17.10;95806.00;;;;8313079;28;20279;-68
2022/08/16 04:09:24;;;;;;;8.00;4.47;;;;;17.10;95798.00;;;;8305268;28;20669;-68
2022/08/16 04:13:30;;;;;;;5.53;4.60;;;;;17.10;95791.00;;;;8287656;28;20650;-73
2022/08/16 04:17:53;;;;;;;10.77;4.35;;;;;17.00;95802.00;;;;8277083;28;20236;-70
2022/08/16 04:21:57;;;;;;;6.63;4.43;;;;;16.90;95799.00;;;;8290048;28;20222;-71
2022/08/16 04:26:02;;;;;;;6.57;4.72;;;;;16.90;95801.00;;;;8296647;28;20974;-69
2022/08/16 04:30:11;;;;;;;4.57;4.13;;;;;16.90;95815.00;;;;8315337;28;20248;-69
2022/08/16 04:34:36;;;;;;;5.07;4.57;;;;;17.00;95816.00;;;;8308763;28;20229;-70
2022/08/16 04:38:39;;;;;;;4.97;4.07;;;;;17.00;95818.00;;;;8310397;28;20227;-68
2022/08/16 04:42:44;;;;;;;5.72;4.93;;;;;16.90;95816.00;;;;8308912;28;20226;-68
2022/08/16 04:46:49;;;;;;;5.05;4.50;;;;;16.80;95824.00;;;;8321312;28;20798;-68
2022/08/16 04:51:05;;;;;;;4.75;4.35;;;;;16.80;95830.00;;;;8313679;28;20237;-70
2022/08/16 04:55:17;;;;;;;5.43;4.93;;;;;16.80;95828.00;;;;8319008;28;20669;-68
2022/08/16 04:59:20;;;;;;;8.95;4.93;;;;;16.80;95825.00;;;;8318682;28;20343;-69
2022/08/16 05:03:25;;;;;;;5.55;4.47;;;;;16.90;95825.00;;;;8319008;28;20701;-68
2022/08/16 05:07:29;;;;;;;5.50;4.30;;;;;17.00;95827.00;;;;8316898;28;20635;-72
2022/08/16 05:11:32;;;;;;;5.55;4.45;;;;;17.30;95834.00;;;;8317787;28;20233;-69
2022/08/16 05:15:36;;;;;;;4.90;4.20;;;;;17.50;95831.00;;;;8313177;28;20287;-69
2022/08/16 05:19:41;;;;;;;8.63;4.85;;;;;17.80;95845.00;;;;8315506;28;20316;-69
2022/08/16 05:23:59;;;;;;;5.93;4.70;;;;;18.00;95839.00;;;;8323229;28;20231;-68
2022/08/16 05:28:04;;;;;;;6.63;4.38;;;;;18.30;95849.00;;;;8316348;28;20235;-70
2022/08/16 05:32:09;;;;;;;5.10;3.97;;;;;18.60;95855.00;;;;8329634;28;20231;-67
2022/08/16 05:36:34;;;;;;;5.28;4.30;;;;;18.80;95859.00;;;;8317636;28;20339;-69
2022/08/16 05:40:39;;;;;;;7.88;4.57;;;;;19.10;95852.00;;;;8317020;28;20231;-67
2022/08/16 05:44:44;;;;;;;4.40;4.00;;;;;19.30;95861.00;;;;8320652;28;20598;-70
2022/08/16 05:48:51;;;;;;;5.43;4.38;;;;;19.60;95863.00;;;;8313889;28;20816;-69
2022/08/16 05:52:59;;;;;;;5.70;4.10;;;;;19.80;95870.00;;;;8316086;28;20271;-75
2022/08/16 05:57:03;;;;;;;4.32;3.92;;;;;20.00;95870.00;;;;8313541;28;20252;-69
2022/08/16 06:01:07;;;;;;;4.63;4.07;;;;;20.20;95869.00;;;;8313162;28;20948;-70
2022/08/16 06:05:12;;;;;;;4.22;3.83;;;;;20.40;95864.00;;;;8312029;28;20622;-76
2022/08/16 06:09:18;;;;;;;4.25;3.75;;;;;20.70;95867.00;;;;8314723;28;20244;-70
2022/08/16 06:13:21;;;;;;;6.00;5.03;;;;;20.90;95878.00;;;;8310604;28;20303;-70
2022/08/16 06:17:25;;;;;;;5.75;4.20;;;;;21.00;95883.00;;;;8311792;28;20237;-70
2022/08/16 06:21:46;;;;;;;5.28;3.88;;;;;21.20;95883.00;;;;8313729;28;20367;-68
2022/08/16 06:25:59;;;;;;;5.53;4.38;;;;;21.40;95886.00;;;;8308098;28;20237;-69
2022/08/16 06:30:04;;;;;;;6.57;4.30;;;;;21.50;95881.00;;;;8309513;28;20228;-69
2022/08/16 06:34:08;;;;;;;6.55;3.90;;;;;21.80;95882.00;;;;8315471;28;20259;-67
2022/08/16 06:38:31;;;;;;;4.35;3.95;;;;;22.10;95874.00;;;;8312426;28;20283;-70
2022/08/16 06:42:38;;;;;;;5.40;4.22;;;;;22.30;95885.00;;;;8312325;28;20231;-67
2022/08/16 06:46:56;;;;;;;5.53;3.95;;;;;22.60;95892.00;;;;8307872;28;20234;-70
2022/08/16 06:50:59;;;;;;;5.72;3.83;;;;;23.00;95891.00;;;;8309382;28;20252;-67
2022/08/16 06:55:04;;;;;;;6.25;4.45;;;;;23.20;95905.00;;;;8317492;28;20684;-68
2022/08/16 06:59:09;;;;;;;5.45;4.05;;;;;23.50;95903.00;;;;8314060;28;20741;-68
2022/08/16 07:03:12;;;;;;;5.88;4.30;;;;;23.80;95903.00;;;;8312996;28;20581;-75
2022/08/16 07:07:34;;;;;;;5.65;4.47;;;;;24.10;95900.00;;;;8314166;28;20828;-67
2022/08/16 07:11:38;;;;;;;6.68;3.70;;;;;24.30;95894.00;;;;8309597;28;20704;-67
2022/08/16 07:15:52;;;;;;;5.28;3.40;;;;;24.70;95895.00;;;;8316425;28;20316;-66
2022/08/16 07:19:56;;;;;;;6.25;3.90;;;;;25.20;95897.00;;;;8312467;28;20311;-69
2022/08/16 07:24:20;;;;;;;3.97;3.60;;;;;26.00;95902.00;;;;8316275;28;20232;-64
2022/08/16 07:28:34;;;;;;;3.67;3.38;;;;;26.90;95900.00;;;;8309403;28;20225;-69
2022/08/16 07:32:38;;;;;;;5.38;4.10;;;;;27.70;95902.00;;;;8318232;28;20312;-71
2022/08/16 07:36:54;;;;;;;3.72;3.42;;;;;28.40;95904.00;;;;8304422;28;20229;-69
2022/08/16 07:41:01;;;;;;;6.95;3.50;;;;;28.80;95906.00;;;;8309446;28;20552;-66
2022/08/16 07:45:12;;;;;;;3.38;3.10;;;;;29.40;95912.00;;;;8313461;28;20300;-69
2022/08/16 07:49:20;;;;;;;4.95;3.30;;;;;29.70;95914.00;;;;8306924;28;20233;-66
2022/08/16 07:53:23;;;;;;;3.47;3.17;;;;;30.00;95910.00;;;;8302842;28;20581;-67
2022/08/16 07:57:31;;;;;;;4.57;3.40;;;;;30.40;95910.00;;;;8312661;28;20229;-68
2022/08/16 08:01:40;;;;;;;3.20;2.90;;;;;30.60;95905.00;;;;8310856;28;20242;-66
2022/08/16 08:05:45;;;;;;;3.65;3.03;;;;;30.60;95911.00;;;;8310493;28;20217;-66
2022/08/16 08:09:49;;;;;;;3.05;2.85;;;;;31.20;95911.00;;;;8306038;28;20237;-67
2022/08/16 08:13:54;;;;;;;5.13;2.90;;;;;31.40;95918.00;;;;8306793;28;20225;-68
2022/08/16 08:18:01;;;;;;;4.63;2.97;;;;;31.50;95925.00;;;;8305010;28;20639;-66
2022/08/16 08:22:26;;;;;;;4.82;3.33;;;;;31.80;95918.00;;;;8312653;28;20304;-66
2022/08/16 08:26:29;;;;;;;3.10;2.80;;;;;32.00;95914.00;;;;8305807;28;20764;-69
2022/08/16 08:30:34;;;;;;;5.13;3.05;;;;;32.00;95919.00;;;;8303223;28;20336;-69
2022/08/16 08:34:58;;;;;;;3.88;3.05;;;;;32.00;95925.00;;;;8309384;28;20225;-67
2022/08/16 08:39:07;;;;;;;5.32;3.45;;;;;32.00;95924.00;;;;8312692;28;20639;-67
2022/08/16 08:43:16;;;;;;;3.63;3.33;;;;;32.20;95928.00;;;;8305925;28;20233;-77
2022/08/16 08:47:21;;;;;;;3.15;2.95;;;;;32.50;95927.00;;;;8308398;28;20890;-76
2022/08/16 08:51:24;;;;;;;6.80;3.10;;;;;32.80;95921.00;;;;8308486;28;20300;-75
2022/08/16 08:55:35;;;;;;;3.90;3.00;;;;;32.60;95918.00;;;;8308638;28;20316;-76
2022/08/16 08:59:38;;;;;;;3.65;2.70;;;;;32.70;95927.00;;;;8310712;28;20639;-75
2022/08/16 09:03:43;;;;;;;3.67;3.33;;;;;33.10;95930.00;;;;8311228;28;20237;-75
2022/08/16 09:07:46;;;;;;;3.92;2.90;;;;;33.40;95935.00;;;;8310499;28;20236;-75
2022/08/16 09:12:06;;;;;;;4.90;3.30;;;;;33.40;95936.00;;;;8310186;28;20228;-74
2022/08/16 09:16:09;;;;;;;3.42;3.13;;;;;33.50;95934.00;;;;8309499;28;20570;-74
2022/08/16 09:20:33;;;;;;;3.33;2.83;;;;;34.00;95934.00;;;;8307670;28;20237;-75
2022/08/16 09:24:56;;;;;;;3.10;2.80;;;;;34.40;95931.00;;;;8314223;28;21010;-75
2022/08/16 09:29:16;;;;;;;3.15;2.65;;;;;35.00;95933.00;;;;8305519;28;20229;-75
2022/08/16 09:33:39;;;;;;;4.40;2.90;;;;;35.10;95934.00;;;;8316852;28;20613;-73
2022/08/16 09:37:42;;;;;;;3.10;2.90;;;;;35.20;95929.00;;;;8315996;28;20742;-74
2022/08/16 09:42:03;;;;;;;2.92;2.30;;;;;35.70;95934.00;;;;8320415;28;20220;-75
2022/08/16 09:46:08;;;;;;;3.22;2.67;;;;;35.70;95928.00;;;;8320343;28;20577;-70
2022/08/16 09:50:33;;;;;;;2.63;2.47;;;;;36.10;95928.00;;;;8298594;28;20241;-74
2022/08/16 09:54:41;;;;;;;3.15;2.63;;;;;35.20;95936.00;;;;8323128;28;20671;-74
2022/08/16 09:58:47;;;;;;;3.05;2.50;;;;;33.90;95930.00;;;;8320242;28;20232;-75
2022/08/16 10:03:14;;;;;;;2.80;2.60;;;;;32.70;95934.00;;;;8323853;28;20283;-75
2022/08/16 10:07:18;;;;;;;3.92;2.60;;;;;31.50;95935.00;;;;8313412;28;20255;-75
2022/08/16 10:15:54;;;;;;;3.05;2.85;;;;;30.30;95923.00;;;;8315178;28;20671;-74
2022/08/16 10:19:59;;;;;;;3.47;2.88;;;;;30.70;95915.00;;;;8317435;28;20287;-73
2022/08/16 10:24:02;;;;;;;3.25;2.60;;;;;32.10;95915.00;;;;8304748;28;20225;-74
2022/08/16 10:28:06;;;;;;;2.90;2.70;;;;;32.80;95917.00;;;;8312697;28;20225;-73
2022/08/16 10:32:30;;;;;;;6.22;3.20;;;;;32.70;95918.00;;;;8313308;28;20233;-74
2022/08/16 10:36:35;;;;;;;3.40;2.75;;;;;33.20;95916.00;;;;8312531;28;20229;-73
2022/08/16 10:40:42;;;;;;;5.45;2.70;;;;;33.90;95915.00;;;;8308088;28;20229;-71
2022/08/16 10:44:47;;;;;;;3.35;2.90;;;;;34.30;95923.00;;;;8308265;28;20249;-72
2022/08/16 10:48:57;;;;;;;5.60;2.85;;;;;34.40;95918.00;;;;8305571;28;20891;-73
2022/08/16 10:53:05;;;;;;;2.10;2.00;;;;;35.20;95916.00;;;;8310340;28;20849;-72
2022/08/16 10:57:09;;;;;;;3.80;2.80;;;;;33.70;95922.00;;;;8310497;28;20252;-74
2022/08/16 11:01:14;;;;;;;2.97;2.78;;;;;33.80;95912.00;;;;8313258;28;20228;-72
2022/08/16 11:05:40;;;;;;;2.92;2.70;;;;;34.50;95911.00;;;;8310383;28;20283;-74
2022/08/16 11:10:06;;;;;;;2.80;2.60;;;;;34.90;95912.00;;;;8312916;28;20621;-73
2022/08/16 11:14:29;;;;;;;2.72;2.47;;;;;35.90;95915.00;;;;8309819;28;20221;-73
2022/08/16 11:18:33;;;;;;;4.40;2.60;;;;;36.30;95901.00;;;;8309522;28;20221;-73
2022/08/16 11:22:57;;;;;;;2.78;2.45;;;;;36.50;95907.00;;;;8306142;28;20229;-72
2022/08/16 11:27:05;;;;;;;3.00;2.60;;;;;36.30;95899.00;;;;8312311;28;20925;-74
2022/08/16 11:31:28;;;;;;;5.40;2.30;;;;;36.20;95904.00;;;;8304109;28;20736;-74
2022/08/16 11:35:35;;;;;;;4.13;2.55;;;;;36.30;95901.00;;;;8314089;28;20233;-74
2022/08/16 11:39:46;;;;;;;3.10;2.80;;;;;37.00;95904.00;;;;8313394;28;20235;-75
2022/08/16 11:43:58;;;;;;;2.60;2.40;;;;;37.30;95898.00;;;;8313143;28;20225;-73
2022/08/16 11:48:02;;;;;;;4.10;2.40;;;;;37.20;95899.00;;;;8311123;28;20305;-74
2022/08/16 11:52:06;;;;;;;3.83;2.35;;;;;37.60;95900.00;;;;8306681;28;20753;-72
2022/08/16 11:56:09;;;;;;;5.97;2.75;;;;;37.80;95896.00;;;;8315673;28;20235;-71
2022/08/16 12:00:18;;;;;;;5.85;2.45;;;;;37.60;95898.00;;;;8308020;28;20244;-73
2022/08/16 12:04:43;;;;;;;2.33;2.13;;;;;37.70;95899.00;;;;8308752;28;20287;-73
2022/08/16 12:08:47;;;;;;;3.58;2.42;;;;;36.50;95902.00;;;;8313457;28;20320;-73
2022/08/16 12:12:50;;;;;;;2.70;2.50;;;;;35.50;95897.00;;;;8301707;28;21755;-73
2022/08/16 12:16:56;;;;;;;2.50;2.40;;;;;34.80;95885.00;;;;8305235;28;20231;-73
2022/08/16 12:21:00;;;;;;;4.13;2.40;;;;;34.70;95894.00;;;;8302477;28;20229;-65
2022/08/16 12:25:07;;;;;;;2.33;2.13;;;;;34.60;95897.00;;;;8311191;28;20225;-67
2022/08/16 12:29:10;;;;;;;4.57;2.35;;;;;34.20;95899.00;;;;8308117;28;20290;-68
2022/08/16 12:33:17;;;;;;;4.28;2.45;;;;;34.30;95895.00;;;;8309483;28;20259;-67
2022/08/16 12:37:28;;;;;;;3.35;2.45;;;;;34.70;95889.00;;;;8311749;28;20305;-69
2022/08/16 12:41:36;;;;;;;3.70;2.45;;;;;34.60;95892.00;;;;8308987;28;20233;-69
2022/08/16 12:45:49;;;;;;;5.05;2.55;;;;;34.70;95881.00;;;;8311840;28;20670;-66
2022/08/16 12:49:55;;;;;;;3.40;2.50;;;;;34.70;95890.00;;;;8315233;28;20315;-68
2022/08/16 12:54:01;;;;;;;2.47;2.38;;;;;34.40;95890.00;;;;8312431;28;20837;-69
2022/08/16 12:58:05;;;;;;;3.58;2.28;;;;;33.80;95880.00;;;;8307121;28;20225;-68
2022/08/16 13:02:29;;;;;;;4.15;2.20;;;;;33.90;95883.00;;;;8301413;28;20316;-65
2022/08/16 13:06:40;;;;;;;2.47;2.25;;;;;34.00;95878.00;;;;8317596;28;20249;-68
2022/08/16 13:10:45;;;;;;;3.63;2.30;;;;;33.70;95882.00;;;;8307436;28;20225;-69
2022/08/16 13:14:54;;;;;;;2.92;2.70;;;;;33.30;95883.00;;;;8334098;28;20232;-67
2022/08/16 13:18:58;;;;;;;2.58;2.25;;;;;33.20;95883.00;;;;8320927;28;20792;-71
2022/08/16 13:23:05;;;;;;;4.38;2.35;;;;;33.00;95875.00;;;;8314083;28;20237;-67
2022/08/16 13:27:08;;;;;;;2.67;2.47;;;;;32.80;95882.00;;;;8318706;28;20654;-67
2022/08/16 13:31:12;;;;;;;6.60;2.33;;;;;32.80;95878.00;;;;8310751;28;20220;-67
2022/08/16 13:35:17;;;;;;;4.47;2.33;;;;;32.90;95880.00;;;;8320206;28;20252;-65
2022/08/16 13:39:23;;;;;;;4.97;2.55;;;;;33.30;95874.00;;;;8316606;28;20244;-70
2022/08/16 13:43:27;;;;;;;3.05;2.40;;;;;33.50;95865.00;;;;8316067;28;20225;-64
2022/08/16 13:47:34;;;;;;;4.82;2.45;;;;;33.60;95868.00;;;;8319914;28;20230;-64
2022/08/16 13:51:38;;;;;;;5.00;2.67;;;;;34.30;95868.00;;;;8318002;28;20235;-66
2022/08/16 13:55:43;;;;;;;2.33;2.22;;;;;35.40;95857.00;;;;8314832;28;20221;-66
2022/08/16 13:59:59;;;;;;;2.65;2.45;;;;;36.00;95853.00;;;;8317378;28;20225;-70
2022/08/16 14:04:03;;;;;;;3.63;2.40;;;;;36.40;95862.00;;;;8320490;28;20243;-71
2022/08/16 14:08:06;;;;;;;2.33;2.13;;;;;36.70;95856.00;;;;8313435;28;20694;-68
2022/08/16 14:12:19;;;;;;;2.10;1.95;;;;;36.80;95855.00;;;;8327283;28;20225;-70
2022/08/16 14:16:22;;;;;;;3.15;2.10;;;;;37.20;95850.00;;;;8325587;28;20229;-67
2022/08/16 14:20:36;;;;;;;3.88;2.10;;;;;37.60;95858.00;;;;8321861;28;20244;-65
2022/08/16 14:24:39;;;;;;;3.33;2.28;;;;;38.00;95850.00;;;;8319209;28;20224;-66
2022/08/16 14:28:49;;;;;;;2.20;2.00;;;;;37.70;95845.00;;;;8313038;28;20296;-66
2022/08/16 14:32:53;;;;;;;2.40;2.30;;;;;37.60;95862.00;;;;8318103;28;20235;-67
2022/08/16 14:36:56;;;;;;;2.20;2.10;;;;;37.50;95852.00;;;;8321892;28;20894;-65
2022/08/16 14:41:01;;;;;;;2.58;2.03;;;;;37.50;95853.00;;;;8318190;28;20488;-66
2022/08/16 14:45:12;;;;;;;2.50;2.30;;;;;37.20;95840.00;;;;8308377;28;20259;-73
2022/08/16 14:49:16;;;;;;;2.33;2.10;;;;;36.00;95847.00;;;;8299705;28;21511;-76
2022/08/16 14:53:19;;;;;;;1.98;1.88;;;;;35.20;95839.00;;;;8302111;28;20435;-77
2022/08/16 14:57:22;;;;;;;2.53;2.10;;;;;35.10;95838.00;;;;8294306;28;20229;-76
2022/08/16 15:01:28;;;;;;;4.82;2.50;;;;;35.80;95834.00;;;;8307628;28;20237;-73
2022/08/16 15:05:52;;;;;;;2.50;2.30;;;;;36.30;95836.00;;;;8312926;28;20225;-78
2022/08/16 15:09:56;;;;;;;4.65;2.10;;;;;36.50;95836.00;;;;8321771;28;20225;-78
2022/08/16 15:14:04;;;;;;;2.45;2.30;;;;;36.30;95835.00;;;;8320234;28;20272;-78
2022/08/16 15:18:10;;;;;;;3.28;2.08;;;;;36.30;95831.00;;;;8309289;28;20271;-77
2022/08/16 15:22:22;;;;;;;2.25;2.10;;;;;36.20;95823.00;;;;8312125;28;20228;-72
2022/08/16 15:26:28;;;;;;;2.15;2.05;;;;;36.30;95824.00;;;;8309046;28;20253;-77
2022/08/16 15:30:45;;;;;;;3.33;1.90;;;;;36.40;95827.00;;;;8311021;28;20272;-79
2022/08/16 15:35:06;;;;;;;3.35;2.50;;;;;36.50;95822.00;;;;8312668;28;20226;-73
2022/08/16 15:39:09;;;;;;;3.45;2.40;;;;;36.60;95821.00;;;;8310357;28;20239;-74
2022/08/16 15:43:35;;;;;;;2.20;2.10;;;;;36.40;95830.00;;;;8309030;28;20680;-76
2022/08/16 15:47:42;;;;;;;4.07;2.08;;;;;36.50;95818.00;;;;8320649;28;20419;-73
2022/08/16 15:52:00;;;;;;;2.40;2.20;;;;;36.30;95818.00;;;;8323638;28;20236;-77
2022/08/16 15:56:05;;;;;;;2.55;2.30;;;;;35.80;95828.00;;;;8321029;28;20259;-75
2022/08/16 16:00:11;;;;;;;4.45;2.13;;;;;35.90;95830.00;;;;8318959;28;20225;-74
2022/08/16 16:04:17;;;;;;;4.50;2.20;;;;;35.80;95835.00;;;;8308575;28;20237;-76
2022/08/16 16:08:29;;;;;;;6.03;1.98;;;;;36.30;95824.00;;;;8302349;28;20240;-77
2022/08/16 16:12:33;;;;;;;4.50;1.90;;;;;36.50;95829.00;;;;8293257;28;20252;-75
2022/08/16 16:16:59;;;;;;;5.72;2.50;;;;;35.80;95834.00;;;;8293881;28;20221;-70
2022/08/16 16:21:07;;;;;;;2.10;2.00;;;;;35.40;95824.00;;;;8306640;28;20213;-69
2022/08/16 16:25:14;;;;;;;3.58;2.22;;;;;35.40;95826.00;;;;8302219;28;20581;-71
2022/08/16 16:29:18;;;;;;;2.67;2.40;;;;;35.70;95826.00;;;;8299470;28;20279;-70
2022/08/16 16:33:23;;;;;;;2.25;1.95;;;;;36.10;95827.00;;;;8303091;28;20721;-70
2022/08/16 16:37:26;;;;;;;4.65;2.20;;;;;36.50;95821.00;;;;8296305;28;20226;-69
2022/08/16 16:41:32;;;;;;;6.20;2.30;;;;;36.90;95815.00;;;;8304832;28;20233;-67
2022/08/16 16:45:36;;;;;;;2.13;2.00;;;;;37.00;95818.00;;;;8303301;28;20386;-69
2022/08/16 16:49:39;;;;;;;3.88;2.10;;;;;37.20;95819.00;;;;8308037;28;20236;-67
2022/08/16 16:53:50;;;;;;;2.95;1.90;;;;;37.40;95815.00;;;;8309272;28;20231;-67
2022/08/16 17:02:38;;;;;;;3.35;2.22;;;;;37.90;95821.00;;;;8304777;28;20229;-68
2022/08/16 17:06:56;;;;;;;8.65;2.50;;;;;38.00;95828.00;;;;8307083;28;20225;-67
2022/08/16 17:10:59;;;;;;;2.85;2.00;;;;;37.90;95817.00;;;;8314731;28;20231;-68
2022/08/16 17:15:06;;;;;;;2.60;1.95;;;;;37.70;95826.00;;;;8312434;28;20304;-67
2022/08/16 17:19:11;;;;;;;2.28;1.95;;;;;37.40;95826.00;;;;8301465;28;20225;-66
2022/08/16 17:23:24;;;;;;;2.22;2.00;;;;;37.30;95826.00;;;;8299860;28;20833;-65
2022/08/16 17:27:48;;;;;;;6.15;2.00;;;;;36.80;95825.00;;;;8277311;28;20236;-67
2022/08/16 17:31:59;;;;;;;3.05;2.20;;;;;36.10;95831.00;;;;8309366;28;20229;-68
2022/08/16 17:36:22;;;;;;;2.42;2.00;;;;;35.40;95846.00;;;;8311869;28;20661;-67
2022/08/16 17:40:43;;;;;;;2.60;2.28;;;;;34.50;95837.00;;;;8309764;28;20217;-66
2022/08/16 17:45:00;;;;;;;3.00;2.03;;;;;33.60;95838.00;;;;8306754;28;20234;-66
2022/08/16 17:49:05;;;;;;;3.42;2.40;;;;;32.90;95847.00;;;;8305631;28;20220;-68
2022/08/16 17:53:09;;;;;;;2.13;1.92;;;;;32.10;95846.00;;;;8299807;28;20233;-67
2022/08/16 17:57:12;;;;;;;4.88;2.38;;;;;31.20;95845.00;;;;8314687;28;20671;-66
2022/08/16 18:01:24;;;;;;;5.10;2.40;;;;;30.40;95847.00;;;;8311725;28;20221;-67
2022/08/16 18:05:30;;;;;;;5.90;2.28;;;;;29.70;95848.00;;;;8308101;28;20269;-69
2022/08/16 18:09:34;;;;;;;2.63;2.20;;;;;29.10;95851.00;;;;8314565;28;20232;-66
2022/08/16 18:13:41;;;;;;;4.22;2.30;;;;;28.60;95852.00;;;;8305779;28;20225;-69
2022/08/16 18:17:45;;;;;;;5.10;2.25;;;;;28.10;95858.00;;;;8317925;28;20251;-67
2022/08/16 18:26:10;;;;;;;9.82;2.60;;;;;27.10;95853.00;;;;8301523;28;20224;-68
2022/08/16 18:30:16;;;;;;;34.05;3.75;;;;;26.60;95851.00;;;;8307318;28;20225;-69
2022/08/16 18:34:20;;;;;;;40.42;4.15;;;;;26.30;95859.00;;;;8315531;28;20225;-67
2022/08/16 18:38:24;;;;;;;56.10;4.50;;;;;26.00;95856.00;;;;8306981;28;20229;-67
2022/08/16 18:42:28;;;;;;;21.42;3.63;;;;;25.70;95853.00;;;;8320376;28;20222;-67
2022/08/16 18:46:31;;;;;;;2.65;2.00;;;;;25.50;95861.00;;;;8319100;28;20225;-69
2022/08/16 18:50:35;;;;;;;7.32;2.63;;;;;25.20;95868.00;;;;8323242;28;20571;-66
2022/08/16 18:55:00;;;;;;;9.30;2.65;;;;;24.90;95855.00;;;;8312361;28;20283;-66
2022/08/16 18:59:16;;;;;;;2.45;2.28;;;;;24.70;95860.00;;;;8300819;28;20225;-68
2022/08/16 19:03:24;;;;;;;8.05;3.00;;;;;24.50;95865.00;;;;8309665;28;20320;-65
2022/08/16 19:07:30;;;;;;;4.38;2.45;;;;;24.30;95863.00;;;;8352133;22;20244;-68
2022/08/16 19:11:35;;;;;;;6.70;2.72;;;;;24.40;95864.00;;;;8276394;28;20225;-71
2022/08/16 19:15:40;;;;;;;2.85;2.65;;;;;24.30;95872.00;;;;8300780;28;20247;-69
2022/08/16 19:20:15;;;;;;;4.65;2.70;;;;;24.20;95875.00;;;;8308931;22;20242;-69
2022/08/16 19:24:18;;;;;;;3.83;2.80;;;;;24.10;95887.00;;;;8313829;28;20274;-69
2022/08/16 19:28:27;;;;;;;3.20;3.00;;;;;24.10;95883.00;;;;8304670;28;20240;-69
2022/08/16 19:32:50;;;;;;;6.38;2.63;;;;;23.90;95892.00;;;;8313864;28;20225;-69
2022/08/16 19:36:55;;;;;;;3.63;2.70;;;;;23.90;95895.00;;;;8287523;28;20229;-70
2022/08/16 19:40:58;;;;;;;3.17;2.65;;;;;24.00;95896.00;;;;8289309;28;20224;-70
2022/08/16 19:45:04;;;;;;;6.20;2.78;;;;;24.10;95899.00;;;;8286440;28;20230;-69
2022/08/16 19:49:07;;;;;;;2.70;2.50;;;;;24.20;95905.00;;;;8294004;28;20951;-67
2022/08/16 19:53:13;;;;;;;4.65;2.60;;;;;24.10;95905.00;;;;8294505;28;20229;-65
2022/08/16 19:57:22;;;;;;;3.75;2.63;;;;;23.90;95903.00;;;;8311913;28;20213;-67
2022/08/16 20:01:26;;;;;;;6.47;3.35;;;;;23.80;95903.00;;;;8293653;28;20753;-68
2022/08/16 20:05:34;;;;;;;6.30;2.88;;;;;23.70;95913.00;;;;8293857;28;20221;-67
2022/08/16 20:09:37;;;;;;;3.63;2.70;;;;;23.70;95911.00;;;;8296027;28;20284;-69
2022/08/16 20:13:42;;;;;;;2.92;2.60;;;;;23.60;95918.00;;;;8291604;28;20826;-69
2022/08/16 20:17:47;;;;;;;3.22;2.92;;;;;23.50;95908.00;;;;8295815;28;20228;-65
2022/08/16 20:21:57;;;;;;;4.32;2.65;;;;;23.30;95908.00;;;;8293056;28;20313;-64
2022/08/16 20:26:03;;;;;;;5.75;3.13;;;;;23.20;95916.00;;;;8265073;28;20221;-65
2022/08/16 20:30:10;;;;;;;6.57;2.95;;;;;23.00;95922.00;;;;8273475;28;20226;-65
2022/08/16 20:34:15;;;;;;;7.03;3.35;;;;;22.90;95921.00;;;;8268400;28;20261;-65
2022/08/16 20:38:19;;;;;;;3.28;2.72;;;;;22.80;95932.00;;;;8282139;28;20674;-65
2022/08/16 20:42:25;;;;;;;7.20;3.03;;;;;22.60;95934.00;;;;8274713;28;20378;-65
2022/08/16 20:46:28;;;;;;;3.35;3.10;;;;;22.40;95934.00;;;;8275224;28;20244;-65
2022/08/16 20:50:34;;;;;;;5.20;3.55;;;;;22.30;95941.00;;;;8277746;28;20230;-65
2022/08/16 20:54:37;;;;;;;6.20;3.25;;;;;22.20;95939.00;;;;8261158;28;20233;-65
2022/08/16 20:58:41;;;;;;;5.00;3.30;;;;;22.10;95943.00;;;;8259373;28;20225;-65
2022/08/16 21:02:45;;;;;;;5.22;3.20;;;;;22.00;95944.00;;;;8270667;28;20251;-65